Canada del Ucle, Argentina
Current Conditions -  °F | °C
As of 7:16 PM on Friday 31 Oct 2014 (Local Time) from SAAR Reporting Station
Broken Clouds Broken Clouds  
Wind Chill: 19°   Ceiling: 10000
Heat Index: 19°   Visibility: 6mi
Dew Point: 17°   Wind: 3mph
Humidity: 88%   Direction: 70°ENE
Pressure: 29.97"   Gusts: NA
Location:  33.41°S, 61.63°W
Report Text: SAAR 312216Z 07003KT 9999 FEW032 BKN100 19/17 Q1015 RERA
Loading
Personal Weather Stations






























Interactive Weather Map
Tropical Storm Tracking
New forecast layout! Learn more

10-Day Weather Forecast

Advertisements
Track Severe Weather on mobile